sensor_id;sensor_type;location;lat;lon;timestamp;P1;durP1;ratioP1;P2;durP2;ratioP2
75928;SDS011;64606;44.062;2.986;2023-05-02T00:00:09;3.08;;;1.40;;
75928;SDS011;64606;44.062;2.986;2023-05-02T00:02:36;3.33;;;1.40;;
75928;SDS011;64606;44.062;2.986;2023-05-02T00:05:02;2.50;;;1.30;;
75928;SDS011;64606;44.062;2.986;2023-05-02T00:07:29;2.35;;;1.42;;
75928;SDS011;64606;44.062;2.986;2023-05-02T00:09:55;3.10;;;1.23;;
75928;SDS011;64606;44.062;2.986;2023-05-02T00:12:21;3.10;;;1.40;;
75928;SDS011;64606;44.062;2.986;2023-05-02T00:14:47;2.42;;;1.20;;
75928;SDS011;64606;44.062;2.986;2023-05-02T00:17:17;3.10;;;1.60;;
75928;SDS011;64606;44.062;2.986;2023-05-02T00:19:43;4.15;;;1.30;;
75928;SDS011;64606;44.062;2.986;2023-05-02T00:22:09;5.00;;;1.50;;
75928;SDS011;64606;44.062;2.986;2023-05-02T00:24:36;5.45;;;1.70;;
75928;SDS011;64606;44.062;2.986;2023-05-02T00:27:02;2.03;;;1.30;;
75928;SDS011;64606;44.062;2.986;2023-05-02T00:29:28;3.92;;;1.40;;
75928;SDS011;64606;44.062;2.986;2023-05-02T00:31:55;3.50;;;1.45;;
75928;SDS011;64606;44.062;2.986;2023-05-02T00:34:22;4.75;;;1.50;;
75928;SDS011;64606;44.062;2.986;2023-05-02T00:36:48;3.85;;;1.88;;
75928;SDS011;64606;44.062;2.986;2023-05-02T00:39:14;4.15;;;1.88;;
75928;SDS011;64606;44.062;2.986;2023-05-02T00:41:40;6.00;;;1.65;;
75928;SDS011;64606;44.062;2.986;2023-05-02T00:44:06;4.45;;;1.75;;
75928;SDS011;64606;44.062;2.986;2023-05-02T00:46:33;4.82;;;1.70;;
75928;SDS011;64606;44.062;2.986;2023-05-02T00:48:59;2.70;;;1.67;;
75928;SDS011;64606;44.062;2.986;2023-05-02T00:51:26;2.72;;;1.50;;
75928;SDS011;64606;44.062;2.986;2023-05-02T00:53:52;4.95;;;1.75;;
75928;SDS011;64606;44.062;2.986;2023-05-02T00:56:19;4.32;;;1.70;;
75928;SDS011;64606;44.062;2.986;2023-05-02T00:58:45;2.17;;;1.50;;
75928;SDS011;64606;44.062;2.986;2023-05-02T01:03:40;2.63;;;1.40;;
75928;SDS011;64606;44.062;2.986;2023-05-02T01:11:32;3.60;;;1.48;;
75928;SDS011;64606;44.062;2.986;2023-05-02T01:14:00;2.92;;;1.30;;
75928;SDS011;64606;44.062;2.986;2023-05-02T01:16:29;2.17;;;1.20;;
75928;SDS011;64606;44.062;2.986;2023-05-02T01:18:56;4.38;;;1.73;;
75928;SDS011;64606;44.062;2.986;2023-05-02T01:21:23;3.55;;;1.63;;
75928;SDS011;64606;44.062;2.986;2023-05-02T01:26:35;3.20;;;1.55;;
75928;SDS011;64606;44.062;2.986;2023-05-02T01:29:02;4.53;;;1.80;;
75928;SDS011;64606;44.062;2.986;2023-05-02T01:31:39;3.13;;;1.70;;
75928;SDS011;64606;44.062;2.986;2023-05-02T01:34:07;6.38;;;1.60;;
75928;SDS011;64606;44.062;2.986;2023-05-02T01:36:34;2.75;;;1.60;;
75928;SDS011;64606;44.062;2.986;2023-05-02T01:39:01;4.30;;;1.63;;
75928;SDS011;64606;44.062;2.986;2023-05-02T01:41:30;3.55;;;1.63;;
75928;SDS011;64606;44.062;2.986;2023-05-02T01:43:57;2.90;;;1.67;;
75928;SDS011;64606;44.062;2.986;2023-05-02T01:46:26;2.90;;;1.77;;
75928;SDS011;64606;44.062;2.986;2023-05-02T01:48:56;3.70;;;1.50;;
75928;SDS011;64606;44.062;2.986;2023-05-02T01:51:24;7.20;;;1.52;;
75928;SDS011;64606;44.062;2.986;2023-05-02T01:53:53;2.97;;;1.63;;
75928;SDS011;64606;44.062;2.986;2023-05-02T01:56:19;5.93;;;1.58;;
75928;SDS011;64606;44.062;2.986;2023-05-02T01:58:46;4.32;;;1.83;;
75928;SDS011;64606;44.062;2.986;2023-05-02T02:01:12;3.45;;;1.80;;
75928;SDS011;64606;44.062;2.986;2023-05-02T02:03:39;3.88;;;1.70;;
75928;SDS011;64606;44.062;2.986;2023-05-02T02:06:06;4.07;;;1.90;;
75928;SDS011;64606;44.062;2.986;2023-05-02T02:08:33;3.25;;;1.50;;
75928;SDS011;64606;44.062;2.986;2023-05-02T02:10:59;4.20;;;1.90;;
75928;SDS011;64606;44.062;2.986;2023-05-02T02:13:33;5.68;;;1.77;;
75928;SDS011;64606;44.062;2.986;2023-05-02T02:16:01;6.93;;;1.60;;
75928;SDS011;64606;44.062;2.986;2023-05-02T02:18:28;6.03;;;1.42;;
75928;SDS011;64606;44.062;2.986;2023-05-02T02:20:57;2.60;;;1.63;;
75928;SDS011;64606;44.062;2.986;2023-05-02T02:23:25;1.98;;;1.20;;
75928;SDS011;64606;44.062;2.986;2023-05-02T02:25:52;4.50;;;1.52;;
75928;SDS011;64606;44.062;2.986;2023-05-02T02:28:19;2.25;;;1.45;;
75928;SDS011;64606;44.062;2.986;2023-05-02T02:30:45;4.88;;;1.88;;
75928;SDS011;64606;44.062;2.986;2023-05-02T02:33:11;3.70;;;1.67;;
75928;SDS011;64606;44.062;2.986;2023-05-02T02:35:39;4.90;;;1.75;;
75928;SDS011;64606;44.062;2.986;2023-05-02T02:38:10;2.53;;;1.40;;
75928;SDS011;64606;44.062;2.986;2023-05-02T02:40:43;6.15;;;1.50;;
75928;SDS011;64606;44.062;2.986;2023-05-02T02:43:46;2.70;;;1.52;;
75928;SDS011;64606;44.062;2.986;2023-05-02T02:48:36;4.72;;;1.55;;
75928;SDS011;64606;44.062;2.986;2023-05-02T02:51:09;4.13;;;1.52;;
75928;SDS011;64606;44.062;2.986;2023-05-02T02:56:21;2.40;;;1.70;;
75928;SDS011;64606;44.062;2.986;2023-05-02T02:59:05;4.78;;;1.98;;
75928;SDS011;64606;44.062;2.986;2023-05-02T03:01:34;5.10;;;1.60;;
75928;SDS011;64606;44.062;2.986;2023-05-02T03:04:03;3.15;;;1.40;;
75928;SDS011;64606;44.062;2.986;2023-05-02T03:06:30;4.28;;;1.52;;
75928;SDS011;64606;44.062;2.986;2023-05-02T03:08:56;2.92;;;1.52;;
75928;SDS011;64606;44.062;2.986;2023-05-02T03:11:23;2.08;;;1.40;;
75928;SDS011;64606;44.062;2.986;2023-05-02T03:13:49;2.65;;;1.63;;
75928;SDS011;64606;44.062;2.986;2023-05-02T03:16:35;3.90;;;1.48;;
75928;SDS011;64606;44.062;2.986;2023-05-02T03:19:02;3.40;;;1.55;;
75928;SDS011;64606;44.062;2.986;2023-05-02T03:21:29;2.38;;;1.25;;
75928;SDS011;64606;44.062;2.986;2023-05-02T03:23:57;2.97;;;1.45;;
75928;SDS011;64606;44.062;2.986;2023-05-02T03:26:23;3.03;;;1.60;;
75928;SDS011;64606;44.062;2.986;2023-05-02T03:28:49;5.05;;;1.70;;
75928;SDS011;64606;44.062;2.986;2023-05-02T03:31:16;2.33;;;1.40;;
75928;SDS011;64606;44.062;2.986;2023-05-02T03:33:42;5.57;;;1.60;;
75928;SDS011;64606;44.062;2.986;2023-05-02T03:36:08;4.13;;;1.50;;
75928;SDS011;64606;44.062;2.986;2023-05-02T03:38:35;2.30;;;1.48;;
75928;SDS011;64606;44.062;2.986;2023-05-02T03:41:01;3.92;;;1.50;;
75928;SDS011;64606;44.062;2.986;2023-05-02T03:43:28;4.88;;;1.48;;
75928;SDS011;64606;44.062;2.986;2023-05-02T03:45:54;4.78;;;1.85;;
75928;SDS011;64606;44.062;2.986;2023-05-02T03:48:20;3.13;;;1.80;;
75928;SDS011;64606;44.062;2.986;2023-05-02T03:50:46;3.83;;;1.45;;
75928;SDS011;64606;44.062;2.986;2023-05-02T03:53:13;3.50;;;1.60;;
75928;SDS011;64606;44.062;2.986;2023-05-02T03:55:42;4.15;;;1.40;;
75928;SDS011;64606;44.062;2.986;2023-05-02T03:58:09;4.55;;;1.85;;
75928;SDS011;64606;44.062;2.986;2023-05-02T04:00:35;3.05;;;1.50;;
75928;SDS011;64606;44.062;2.986;2023-05-02T04:03:02;3.25;;;1.52;;
75928;SDS011;64606;44.062;2.986;2023-05-02T04:05:28;3.30;;;1.45;;
75928;SDS011;64606;44.062;2.986;2023-05-02T04:07:55;3.15;;;1.90;;
75928;SDS011;64606;44.062;2.986;2023-05-02T04:10:21;4.85;;;1.70;;
75928;SDS011;64606;44.062;2.986;2023-05-02T04:12:47;3.20;;;1.60;;
75928;SDS011;64606;44.062;2.986;2023-05-02T04:15:14;3.45;;;1.58;;
75928;SDS011;64606;44.062;2.986;2023-05-02T04:17:40;3.25;;;1.50;;
75928;SDS011;64606;44.062;2.986;2023-05-02T04:20:06;3.45;;;1.42;;
75928;SDS011;64606;44.062;2.986;2023-05-02T04:22:33;2.97;;;1.60;;
75928;SDS011;64606;44.062;2.986;2023-05-02T04:24:59;2.20;;;1.40;;
75928;SDS011;64606;44.062;2.986;2023-05-02T04:27:25;3.70;;;1.20;;
75928;SDS011;64606;44.062;2.986;2023-05-02T04:29:51;3.85;;;1.63;;
75928;SDS011;64606;44.062;2.986;2023-05-02T04:32:18;2.10;;;1.33;;
75928;SDS011;64606;44.062;2.986;2023-05-02T04:34:44;4.28;;;1.42;;
75928;SDS011;64606;44.062;2.986;2023-05-02T04:37:10;6.82;;;1.63;;
75928;SDS011;64606;44.062;2.986;2023-05-02T04:39:36;6.30;;;1.70;;
75928;SDS011;64606;44.062;2.986;2023-05-02T04:42:02;2.85;;;1.55;;
75928;SDS011;64606;44.062;2.986;2023-05-02T04:44:28;4.75;;;1.58;;
75928;SDS011;64606;44.062;2.986;2023-05-02T04:46:55;3.92;;;1.60;;
75928;SDS011;64606;44.062;2.986;2023-05-02T04:49:21;5.28;;;1.75;;
75928;SDS011;64606;44.062;2.986;2023-05-02T04:51:47;4.78;;;1.60;;
75928;SDS011;64606;44.062;2.986;2023-05-02T04:54:13;4.05;;;1.80;;
75928;SDS011;64606;44.062;2.986;2023-05-02T04:56:39;4.30;;;1.70;;
75928;SDS011;64606;44.062;2.986;2023-05-02T04:59:06;7.15;;;1.70;;
75928;SDS011;64606;44.062;2.986;2023-05-02T05:01:32;3.42;;;1.38;;
75928;SDS011;64606;44.062;2.986;2023-05-02T05:03:58;7.78;;;1.88;;
75928;SDS011;64606;44.062;2.986;2023-05-02T05:06:25;3.53;;;1.65;;
75928;SDS011;64606;44.062;2.986;2023-05-02T05:08:51;3.00;;;1.40;;
75928;SDS011;64606;44.062;2.986;2023-05-02T05:11:17;4.57;;;1.50;;
75928;SDS011;64606;44.062;2.986;2023-05-02T05:13:43;3.40;;;1.73;;
75928;SDS011;64606;44.062;2.986;2023-05-02T05:16:09;5.78;;;1.63;;
75928;SDS011;64606;44.062;2.986;2023-05-02T05:18:36;3.05;;;1.58;;
75928;SDS011;64606;44.062;2.986;2023-05-02T05:21:05;2.72;;;1.50;;
75928;SDS011;64606;44.062;2.986;2023-05-02T05:23:32;5.45;;;1.60;;
75928;SDS011;64606;44.062;2.986;2023-05-02T05:26:07;2.75;;;1.50;;
75928;SDS011;64606;44.062;2.986;2023-05-02T05:28:33;3.70;;;1.55;;
75928;SDS011;64606;44.062;2.986;2023-05-02T05:31:03;3.38;;;1.67;;
75928;SDS011;64606;44.062;2.986;2023-05-02T05:33:30;2.63;;;1.90;;
75928;SDS011;64606;44.062;2.986;2023-05-02T05:35:56;4.32;;;2.20;;
75928;SDS011;64606;44.062;2.986;2023-05-02T05:38:27;2.97;;;1.70;;
75928;SDS011;64606;44.062;2.986;2023-05-02T05:40:54;5.40;;;1.77;;
75928;SDS011;64606;44.062;2.986;2023-05-02T05:43:20;3.42;;;1.90;;
75928;SDS011;64606;44.062;2.986;2023-05-02T05:45:46;6.15;;;2.00;;
75928;SDS011;64606;44.062;2.986;2023-05-02T05:48:12;4.68;;;1.80;;
75928;SDS011;64606;44.062;2.986;2023-05-02T05:50:38;3.20;;;1.88;;
75928;SDS011;64606;44.062;2.986;2023-05-02T05:53:04;2.10;;;1.58;;
75928;SDS011;64606;44.062;2.986;2023-05-02T05:55:30;6.30;;;1.70;;
75928;SDS011;64606;44.062;2.986;2023-05-02T05:57:56;5.13;;;1.83;;
75928;SDS011;64606;44.062;2.986;2023-05-02T06:00:22;3.75;;;1.85;;
75928;SDS011;64606;44.062;2.986;2023-05-02T06:02:48;5.00;;;2.00;;
75928;SDS011;64606;44.062;2.986;2023-05-02T06:05:15;4.05;;;1.77;;
75928;SDS011;64606;44.062;2.986;2023-05-02T06:07:41;6.50;;;1.83;;
75928;SDS011;64606;44.062;2.986;2023-05-02T06:10:07;4.13;;;1.67;;
75928;SDS011;64606;44.062;2.986;2023-05-02T06:12:34;2.42;;;1.50;;
75928;SDS011;64606;44.062;2.986;2023-05-02T06:15:00;2.88;;;1.55;;
75928;SDS011;64606;44.062;2.986;2023-05-02T06:17:26;4.55;;;2.17;;
75928;SDS011;64606;44.062;2.986;2023-05-02T06:19:52;6.80;;;1.92;;
75928;SDS011;64606;44.062;2.986;2023-05-02T06:22:18;3.70;;;1.90;;
75928;SDS011;64606;44.062;2.986;2023-05-02T06:24:44;3.33;;;1.50;;
75928;SDS011;64606;44.062;2.986;2023-05-02T06:27:10;3.00;;;1.80;;
75928;SDS011;64606;44.062;2.986;2023-05-02T06:29:36;6.00;;;1.75;;
75928;SDS011;64606;44.062;2.986;2023-05-02T06:32:03;2.97;;;1.70;;
75928;SDS011;64606;44.062;2.986;2023-05-02T06:34:33;4.82;;;1.73;;
75928;SDS011;64606;44.062;2.986;2023-05-02T06:36:59;4.30;;;1.50;;
75928;SDS011;64606;44.062;2.986;2023-05-02T06:39:25;2.40;;;1.17;;
75928;SDS011;64606;44.062;2.986;2023-05-02T06:41:55;4.50;;;1.52;;
75928;SDS011;64606;44.062;2.986;2023-05-02T06:44:22;2.65;;;1.17;;
75928;SDS011;64606;44.062;2.986;2023-05-02T06:46:48;2.88;;;1.10;;
75928;SDS011;64606;44.062;2.986;2023-05-02T06:49:14;2.28;;;1.23;;
75928;SDS011;64606;44.062;2.986;2023-05-02T06:51:40;3.35;;;1.13;;
75928;SDS011;64606;44.062;2.986;2023-05-02T06:54:06;1.90;;;1.20;;
75928;SDS011;64606;44.062;2.986;2023-05-02T06:56:33;0.98;;;0.60;;
75928;SDS011;64606;44.062;2.986;2023-05-02T06:58:59;2.78;;;0.70;;
75928;SDS011;64606;44.062;2.986;2023-05-02T07:01:25;2.75;;;0.90;;
75928;SDS011;64606;44.062;2.986;2023-05-02T07:03:51;2.65;;;1.70;;
75928;SDS011;64606;44.062;2.986;2023-05-02T07:06:18;2.13;;;1.08;;
75928;SDS011;64606;44.062;2.986;2023-05-02T07:08:45;2.90;;;0.70;;
75928;SDS011;64606;44.062;2.986;2023-05-02T07:11:11;2.42;;;0.60;;
75928;SDS011;64606;44.062;2.986;2023-05-02T07:13:37;2.25;;;0.80;;
75928;SDS011;64606;44.062;2.986;2023-05-02T07:16:04;1.42;;;0.70;;
75928;SDS011;64606;44.062;2.986;2023-05-02T07:18:30;1.52;;;0.90;;
75928;SDS011;64606;44.062;2.986;2023-05-02T07:20:56;0.93;;;0.60;;
75928;SDS011;64606;44.062;2.986;2023-05-02T07:23:22;1.95;;;0.80;;
75928;SDS011;64606;44.062;2.986;2023-05-02T07:25:49;1.17;;;0.73;;
75928;SDS011;64606;44.062;2.986;2023-05-02T07:28:15;1.65;;;0.70;;
75928;SDS011;64606;44.062;2.986;2023-05-02T07:30:41;1.63;;;0.70;;
75928;SDS011;64606;44.062;2.986;2023-05-02T07:33:07;3.28;;;0.73;;
75928;SDS011;64606;44.062;2.986;2023-05-02T07:35:33;1.50;;;0.68;;
75928;SDS011;64606;44.062;2.986;2023-05-02T07:37:59;1.92;;;0.75;;
75928;SDS011;64606;44.062;2.986;2023-05-02T07:40:25;1.48;;;0.77;;
75928;SDS011;64606;44.062;2.986;2023-05-02T07:42:52;2.30;;;0.85;;
75928;SDS011;64606;44.062;2.986;2023-05-02T07:45:18;2.53;;;0.70;;
75928;SDS011;64606;44.062;2.986;2023-05-02T07:47:45;1.10;;;0.68;;
75928;SDS011;64606;44.062;2.986;2023-05-02T07:50:11;1.30;;;0.50;;
75928;SDS011;64606;44.062;2.986;2023-05-02T07:52:37;1.88;;;0.70;;
75928;SDS011;64606;44.062;2.986;2023-05-02T07:55:03;2.25;;;0.85;;
75928;SDS011;64606;44.062;2.986;2023-05-02T07:57:29;2.42;;;0.75;;
75928;SDS011;64606;44.062;2.986;2023-05-02T07:59:56;1.20;;;0.60;;
75928;SDS011;64606;44.062;2.986;2023-05-02T08:02:22;2.70;;;0.60;;
75928;SDS011;64606;44.062;2.986;2023-05-02T08:04:48;2.83;;;0.60;;
75928;SDS011;64606;44.062;2.986;2023-05-02T08:07:15;2.22;;;0.80;;
75928;SDS011;64606;44.062;2.986;2023-05-02T08:09:41;1.50;;;0.60;;
75928;SDS011;64606;44.062;2.986;2023-05-02T08:12:07;2.97;;;0.50;;
75928;SDS011;64606;44.062;2.986;2023-05-02T08:14:33;3.08;;;0.70;;
75928;SDS011;64606;44.062;2.986;2023-05-02T08:16:59;1.73;;;0.57;;
75928;SDS011;64606;44.062;2.986;2023-05-02T08:19:26;1.98;;;0.47;;
75928;SDS011;64606;44.062;2.986;2023-05-02T08:21:53;2.70;;;0.60;;
75928;SDS011;64606;44.062;2.986;2023-05-02T08:24:19;4.97;;;0.52;;
75928;SDS011;64606;44.062;2.986;2023-05-02T08:26:45;2.08;;;0.68;;
75928;SDS011;64606;44.062;2.986;2023-05-02T08:29:11;1.90;;;0.55;;
75928;SDS011;64606;44.062;2.986;2023-05-02T08:31:38;0.82;;;0.60;;
75928;SDS011;64606;44.062;2.986;2023-05-02T08:34:04;1.13;;;0.60;;
75928;SDS011;64606;44.062;2.986;2023-05-02T08:36:31;2.05;;;0.60;;
75928;SDS011;64606;44.062;2.986;2023-05-02T08:38:57;0.80;;;0.60;;
75928;SDS011;64606;44.062;2.986;2023-05-02T08:41:23;3.03;;;0.65;;
75928;SDS011;64606;44.062;2.986;2023-05-02T08:43:50;2.15;;;0.70;;
75928;SDS011;64606;44.062;2.986;2023-05-02T08:46:17;3.30;;;0.70;;
75928;SDS011;64606;44.062;2.986;2023-05-02T08:48:44;1.02;;;0.60;;
75928;SDS011;64606;44.062;2.986;2023-05-02T08:51:14;2.05;;;0.60;;
75928;SDS011;64606;44.062;2.986;2023-05-02T08:53:41;1.17;;;0.55;;
75928;SDS011;64606;44.062;2.986;2023-05-02T08:56:07;2.55;;;0.70;;
75928;SDS011;64606;44.062;2.986;2023-05-02T08:58:34;2.70;;;0.68;;
75928;SDS011;64606;44.062;2.986;2023-05-02T09:01:05;1.15;;;0.50;;
75928;SDS011;64606;44.062;2.986;2023-05-02T09:03:34;1.92;;;0.60;;
75928;SDS011;64606;44.062;2.986;2023-05-02T09:06:05;1.30;;;0.95;;
75928;SDS011;64606;44.062;2.986;2023-05-02T09:08:32;0.70;;;0.60;;
75928;SDS011;64606;44.062;2.986;2023-05-02T09:10:59;1.35;;;0.60;;
75928;SDS011;64606;44.062;2.986;2023-05-02T09:16:00;1.17;;;0.63;;
75928;SDS011;64606;44.062;2.986;2023-05-02T09:18:30;0.70;;;0.60;;
75928;SDS011;64606;44.062;2.986;2023-05-02T09:20:57;1.88;;;0.80;;
75928;SDS011;64606;44.062;2.986;2023-05-02T09:23:34;2.30;;;0.70;;
75928;SDS011;64606;44.062;2.986;2023-05-02T09:26:00;0.52;;;0.52;;
75928;SDS011;64606;44.062;2.986;2023-05-02T09:28:45;1.55;;;0.60;;
75928;SDS011;64606;44.062;2.986;2023-05-02T09:31:15;0.60;;;0.50;;
75928;SDS011;64606;44.062;2.986;2023-05-02T09:33:41;1.50;;;0.70;;
75928;SDS011;64606;44.062;2.986;2023-05-02T09:36:09;2.30;;;0.70;;
75928;SDS011;64606;44.062;2.986;2023-05-02T09:38:36;1.67;;;0.80;;
75928;SDS011;64606;44.062;2.986;2023-05-02T09:41:03;1.77;;;0.70;;
75928;SDS011;64606;44.062;2.986;2023-05-02T09:43:32;1.08;;;0.70;;
75928;SDS011;64606;44.062;2.986;2023-05-02T09:45:59;1.10;;;0.60;;
75928;SDS011;64606;44.062;2.986;2023-05-02T09:48:26;0.90;;;0.60;;
75928;SDS011;64606;44.062;2.986;2023-05-02T09:50:52;1.88;;;0.73;;
75928;SDS011;64606;44.062;2.986;2023-05-02T09:53:19;2.00;;;0.80;;
75928;SDS011;64606;44.062;2.986;2023-05-02T09:55:45;6.40;;;0.80;;
75928;SDS011;64606;44.062;2.986;2023-05-02T09:58:21;1.52;;;0.68;;
75928;SDS011;64606;44.062;2.986;2023-05-02T10:00:47;1.30;;;0.80;;
75928;SDS011;64606;44.062;2.986;2023-05-02T10:03:15;0.90;;;0.73;;
75928;SDS011;64606;44.062;2.986;2023-05-02T10:05:42;1.50;;;0.80;;
75928;SDS011;64606;44.062;2.986;2023-05-02T10:08:08;1.38;;;0.73;;
75928;SDS011;64606;44.062;2.986;2023-05-02T10:10:37;1.05;;;0.68;;
75928;SDS011;64606;44.062;2.986;2023-05-02T10:13:03;0.50;;;0.50;;
75928;SDS011;64606;44.062;2.986;2023-05-02T10:15:30;1.00;;;0.63;;
75928;SDS011;64606;44.062;2.986;2023-05-02T10:17:59;2.40;;;0.80;;
75928;SDS011;64606;44.062;2.986;2023-05-02T10:20:33;0.82;;;0.73;;
75928;SDS011;64606;44.062;2.986;2023-05-02T10:23:01;0.75;;;0.50;;
75928;SDS011;64606;44.062;2.986;2023-05-02T10:25:27;1.63;;;0.80;;
75928;SDS011;64606;44.062;2.986;2023-05-02T10:27:55;1.85;;;0.70;;
75928;SDS011;64606;44.062;2.986;2023-05-02T10:30:23;1.50;;;0.60;;
75928;SDS011;64606;44.062;2.986;2023-05-02T10:32:50;1.10;;;0.63;;
75928;SDS011;64606;44.062;2.986;2023-05-02T10:35:17;0.90;;;0.88;;
75928;SDS011;64606;44.062;2.986;2023-05-02T10:37:44;1.13;;;0.60;;
75928;SDS011;64606;44.062;2.986;2023-05-02T10:40:11;1.67;;;0.80;;
75928;SDS011;64606;44.062;2.986;2023-05-02T10:42:39;1.75;;;0.50;;
75928;SDS011;64606;44.062;2.986;2023-05-02T10:47:50;2.38;;;0.80;;
75928;SDS011;64606;44.062;2.986;2023-05-02T10:50:16;1.02;;;0.52;;
75928;SDS011;64606;44.062;2.986;2023-05-02T10:52:42;2.15;;;0.70;;
75928;SDS011;64606;44.062;2.986;2023-05-02T11:00:26;1.75;;;0.80;;
75928;SDS011;64606;44.062;2.986;2023-05-02T11:02:56;1.95;;;0.65;;
75928;SDS011;64606;44.062;2.986;2023-05-02T11:05:22;2.20;;;0.68;;
75928;SDS011;64606;44.062;2.986;2023-05-02T11:07:49;0.52;;;0.52;;
75928;SDS011;64606;44.062;2.986;2023-05-02T11:15:13;1.00;;;0.70;;
75928;SDS011;64606;44.062;2.986;2023-05-02T11:20:28;1.40;;;0.70;;
75928;SDS011;64606;44.062;2.986;2023-05-02T11:22:55;0.68;;;0.65;;
75928;SDS011;64606;44.062;2.986;2023-05-02T11:25:28;1.08;;;0.70;;
75928;SDS011;64606;44.062;2.986;2023-05-02T11:27:54;1.27;;;0.75;;
75928;SDS011;64606;44.062;2.986;2023-05-02T11:30:41;1.00;;;0.60;;
75928;SDS011;64606;44.062;2.986;2023-05-02T11:35:34;2.22;;;0.75;;
75928;SDS011;64606;44.062;2.986;2023-05-02T11:38:01;0.98;;;0.60;;
75928;SDS011;64606;44.062;2.986;2023-05-02T11:40:28;2.90;;;0.85;;
75928;SDS011;64606;44.062;2.986;2023-05-02T11:42:56;1.15;;;0.70;;
75928;SDS011;64606;44.062;2.986;2023-05-02T11:45:31;2.08;;;0.70;;
75928;SDS011;64606;44.062;2.986;2023-05-02T11:47:58;1.15;;;0.70;;
75928;SDS011;64606;44.062;2.986;2023-05-02T11:50:24;0.98;;;0.50;;
75928;SDS011;64606;44.062;2.986;2023-05-02T11:52:51;1.08;;;0.60;;
75928;SDS011;64606;44.062;2.986;2023-05-02T11:55:17;1.10;;;0.82;;
75928;SDS011;64606;44.062;2.986;2023-05-02T11:57:43;2.05;;;0.80;;
75928;SDS011;64606;44.062;2.986;2023-05-02T12:00:10;2.97;;;0.73;;
75928;SDS011;64606;44.062;2.986;2023-05-02T12:02:43;1.25;;;0.70;;
75928;SDS011;64606;44.062;2.986;2023-05-02T12:05:10;3.17;;;0.60;;
75928;SDS011;64606;44.062;2.986;2023-05-02T12:07:37;2.42;;;0.70;;
75928;SDS011;64606;44.062;2.986;2023-05-02T12:10:07;0.90;;;0.75;;
75928;SDS011;64606;44.062;2.986;2023-05-02T12:12:34;1.48;;;0.88;;
75928;SDS011;64606;44.062;2.986;2023-05-02T12:15:03;2.05;;;0.73;;
75928;SDS011;64606;44.062;2.986;2023-05-02T12:17:30;0.70;;;0.70;;
75928;SDS011;64606;44.062;2.986;2023-05-02T12:19:57;0.60;;;0.50;;
75928;SDS011;64606;44.062;2.986;2023-05-02T12:22:23;1.00;;;0.80;;
75928;SDS011;64606;44.062;2.986;2023-05-02T12:24:50;2.50;;;0.90;;
75928;SDS011;64606;44.062;2.986;2023-05-02T12:27:18;0.75;;;0.70;;
75928;SDS011;64606;44.062;2.986;2023-05-02T12:29:44;1.90;;;0.80;;
75928;SDS011;64606;44.062;2.986;2023-05-02T12:32:11;1.95;;;0.60;;
75928;SDS011;64606;44.062;2.986;2023-05-02T12:34:38;2.90;;;0.98;;
75928;SDS011;64606;44.062;2.986;2023-05-02T12:37:05;1.92;;;0.90;;
75928;SDS011;64606;44.062;2.986;2023-05-02T12:39:38;2.20;;;0.80;;
75928;SDS011;64606;44.062;2.986;2023-05-02T12:42:08;0.90;;;0.65;;
75928;SDS011;64606;44.062;2.986;2023-05-02T12:44:36;0.98;;;0.70;;
75928;SDS011;64606;44.062;2.986;2023-05-02T12:47:03;1.05;;;0.60;;
75928;SDS011;64606;44.062;2.986;2023-05-02T12:49:29;1.90;;;0.88;;
75928;SDS011;64606;44.062;2.986;2023-05-02T12:51:56;1.10;;;0.70;;
75928;SDS011;64606;44.062;2.986;2023-05-02T12:54:23;1.75;;;0.90;;
75928;SDS011;64606;44.062;2.986;2023-05-02T12:56:50;1.33;;;0.80;;
75928;SDS011;64606;44.062;2.986;2023-05-02T12:59:32;1.10;;;0.80;;
75928;SDS011;64606;44.062;2.986;2023-05-02T13:01:58;0.88;;;0.70;;
75928;SDS011;64606;44.062;2.986;2023-05-02T13:04:34;0.95;;;0.77;;
75928;SDS011;64606;44.062;2.986;2023-05-02T13:07:00;4.50;;;0.73;;
75928;SDS011;64606;44.062;2.986;2023-05-02T13:09:26;5.05;;;0.77;;
75928;SDS011;64606;44.062;2.986;2023-05-02T13:11:52;3.80;;;0.80;;
75928;SDS011;64606;44.062;2.986;2023-05-02T13:14:19;0.70;;;0.70;;
75928;SDS011;64606;44.062;2.986;2023-05-02T13:16:45;1.73;;;0.73;;
75928;SDS011;64606;44.062;2.986;2023-05-02T13:19:11;3.63;;;0.88;;
75928;SDS011;64606;44.062;2.986;2023-05-02T13:21:37;1.25;;;0.82;;
75928;SDS011;64606;44.062;2.986;2023-05-02T13:24:03;0.60;;;0.60;;
75928;SDS011;64606;44.062;2.986;2023-05-02T13:26:30;0.60;;;0.60;;
75928;SDS011;64606;44.062;2.986;2023-05-02T13:28:56;1.40;;;0.80;;
75928;SDS011;64606;44.062;2.986;2023-05-02T13:31:22;0.95;;;0.60;;
75928;SDS011;64606;44.062;2.986;2023-05-02T13:33:48;1.33;;;0.70;;
75928;SDS011;64606;44.062;2.986;2023-05-02T13:36:14;1.58;;;0.80;;
75928;SDS011;64606;44.062;2.986;2023-05-02T13:38:40;0.80;;;0.63;;
75928;SDS011;64606;44.062;2.986;2023-05-02T13:41:06;1.50;;;0.80;;
75928;SDS011;64606;44.062;2.986;2023-05-02T13:43:32;2.47;;;0.70;;
75928;SDS011;64606;44.062;2.986;2023-05-02T13:45:58;1.73;;;1.02;;
75928;SDS011;64606;44.062;2.986;2023-05-02T13:48:25;1.90;;;0.80;;
75928;SDS011;64606;44.062;2.986;2023-05-02T13:50:51;1.02;;;0.77;;
75928;SDS011;64606;44.062;2.986;2023-05-02T13:53:17;0.85;;;0.60;;
75928;SDS011;64606;44.062;2.986;2023-05-02T13:55:43;2.60;;;0.85;;
75928;SDS011;64606;44.062;2.986;2023-05-02T13:58:10;0.95;;;0.80;;
75928;SDS011;64606;44.062;2.986;2023-05-02T14:00:36;1.40;;;0.90;;
75928;SDS011;64606;44.062;2.986;2023-05-02T14:03:02;3.50;;;1.00;;
75928;SDS011;64606;44.062;2.986;2023-05-02T14:05:29;1.48;;;0.70;;
75928;SDS011;64606;44.062;2.986;2023-05-02T14:07:55;1.67;;;0.73;;
75928;SDS011;64606;44.062;2.986;2023-05-02T14:10:21;0.90;;;0.70;;
75928;SDS011;64606;44.062;2.986;2023-05-02T14:12:47;1.35;;;0.77;;
75928;SDS011;64606;44.062;2.986;2023-05-02T14:15:13;1.02;;;0.80;;
75928;SDS011;64606;44.062;2.986;2023-05-02T14:17:39;0.77;;;0.60;;
75928;SDS011;64606;44.062;2.986;2023-05-02T14:20:05;1.67;;;0.95;;
75928;SDS011;64606;44.062;2.986;2023-05-02T14:22:34;2.03;;;1.10;;
75928;SDS011;64606;44.062;2.986;2023-05-02T14:25:00;3.13;;;1.00;;
75928;SDS011;64606;44.062;2.986;2023-05-02T14:27:26;2.60;;;0.60;;
75928;SDS011;64606;44.062;2.986;2023-05-02T14:29:52;1.00;;;0.77;;
75928;SDS011;64606;44.062;2.986;2023-05-02T14:32:18;1.45;;;0.90;;
75928;SDS011;64606;44.062;2.986;2023-05-02T14:34:45;0.70;;;0.70;;
75928;SDS011;64606;44.062;2.986;2023-05-02T14:37:11;1.48;;;0.75;;
75928;SDS011;64606;44.062;2.986;2023-05-02T14:39:37;1.88;;;0.80;;
75928;SDS011;64606;44.062;2.986;2023-05-02T14:42:06;2.65;;;0.90;;
75928;SDS011;64606;44.062;2.986;2023-05-02T14:44:32;0.90;;;0.70;;
75928;SDS011;64606;44.062;2.986;2023-05-02T14:46:58;1.35;;;0.90;;
75928;SDS011;64606;44.062;2.986;2023-05-02T14:49:25;1.33;;;0.70;;
75928;SDS011;64606;44.062;2.986;2023-05-02T14:51:51;0.80;;;0.68;;
75928;SDS011;64606;44.062;2.986;2023-05-02T14:54:18;4.20;;;0.70;;
75928;SDS011;64606;44.062;2.986;2023-05-02T14:56:56;1.35;;;0.80;;
75928;SDS011;64606;44.062;2.986;2023-05-02T14:59:28;0.77;;;0.55;;
75928;SDS011;64606;44.062;2.986;2023-05-02T15:01:54;1.90;;;1.13;;
75928;SDS011;64606;44.062;2.986;2023-05-02T15:04:20;1.77;;;0.80;;
75928;SDS011;64606;44.062;2.986;2023-05-02T15:06:47;2.67;;;0.80;;
75928;SDS011;64606;44.062;2.986;2023-05-02T15:09:17;1.13;;;0.77;;
75928;SDS011;64606;44.062;2.986;2023-05-02T15:11:43;1.13;;;0.68;;
75928;SDS011;64606;44.062;2.986;2023-05-02T15:14:09;2.47;;;1.02;;
75928;SDS011;64606;44.062;2.986;2023-05-02T15:16:36;4.28;;;0.90;;
75928;SDS011;64606;44.062;2.986;2023-05-02T15:19:03;1.58;;;0.68;;
75928;SDS011;64606;44.062;2.986;2023-05-02T15:21:29;1.30;;;0.88;;
75928;SDS011;64606;44.062;2.986;2023-05-02T15:23:56;0.93;;;0.70;;